Time;durP1;ratioP1;P1;durP2;ratioP2;P2;SDS_P1;SDS_P2;PMS_P1;PMS_P2;Temp;Humidity;BMP_temperature;BMP_pressure;BME280_temperature;BME280_humidity;BME280_pressure;Samples;Min_cycle;Max_cycle;Signal;HPM_P1;HPM_P2
2021/07/20 00:00:19;;;;;;;12.98;9.55;;;17.40;99.90;;;;;;5027590;28;25089;-76
2021/07/20 00:02:48;;;;;;;18.55;11.25;;;17.30;99.90;;;;;;5034891;28;25164;-74
2021/07/20 00:05:20;;;;;;;18.67;10.90;;;17.20;99.90;;;;;;5032678;28;25072;-76
2021/07/20 00:07:46;;;;;;;22.77;11.35;;;17.10;99.90;;;;;;5032813;28;25070;-76
2021/07/20 00:10:20;;;;;;;16.35;9.75;;;17.10;99.90;;;;;;5032530;28;25083;-75
2021/07/20 00:12:48;;;;;;;16.63;10.13;;;17.00;99.90;;;;;;5032462;28;25071;-77
2021/07/20 00:15:14;;;;;;;17.38;9.95;;;17.00;99.90;;;;;;5032424;28;25067;-75
2021/07/20 00:17:42;;;;;;;21.45;11.70;;;17.10;99.90;;;;;;5029956;28;25051;-75
2021/07/20 00:20:09;;;;;;;20.45;12.27;;;17.00;99.90;;;;;;5016904;28;25068;-75
2021/07/20 00:22:35;;;;;;;24.67;11.02;;;16.90;99.90;;;;;;5034816;28;25073;-76
2021/07/20 00:25:00;;;;;;;18.10;12.23;;;17.00;99.90;;;;;;5013844;28;25158;-76
2021/07/20 00:27:26;;;;;;;19.52;12.93;;;16.80;99.90;;;;;;5031495;28;25132;-76
2021/07/20 00:29:53;;;;;;;23.20;13.68;;;16.80;99.90;;;;;;5021873;28;25082;-74
2021/07/20 00:32:19;;;;;;;21.00;13.32;;;16.90;99.90;;;;;;5017315;28;25163;-75
2021/07/20 00:34:48;;;;;;;25.77;14.70;;;16.90;99.90;;;;;;5030303;28;25083;-75
2021/07/20 00:37:14;;;;;;;23.00;14.05;;;16.90;99.90;;;;;;5031952;28;25088;-74
2021/07/20 00:39:39;;;;;;;23.98;16.10;;;16.90;99.90;;;;;;5028282;28;25070;-75
2021/07/20 00:42:05;;;;;;;22.92;14.52;;;17.00;99.90;;;;;;5032637;28;25139;-73
2021/07/20 00:44:32;;;;;;;24.30;14.45;;;16.90;99.90;;;;;;5031225;28;25074;-75
2021/07/20 00:46:58;;;;;;;21.23;14.70;;;16.80;99.90;;;;;;5025081;28;25081;-77
2021/07/20 00:49:24;;;;;;;27.65;15.45;;;16.70;99.90;;;;;;5031257;28;25071;-75
2021/07/20 00:51:51;;;;;;;26.23;15.35;;;16.80;99.90;;;;;;5033478;28;25105;-74
2021/07/20 00:54:17;;;;;;;24.55;15.07;;;16.90;99.90;;;;;;5036722;28;25086;-74
2021/07/20 00:56:43;;;;;;;26.88;13.23;;;16.80;99.90;;;;;;5028563;28;25188;-73
2021/07/20 00:59:12;;;;;;;26.65;13.32;;;16.70;99.90;;;;;;5021359;28;25056;-73
2021/07/20 01:01:38;;;;;;;19.38;13.20;;;16.70;99.90;;;;;;5023816;28;25066;-74
2021/07/20 01:04:10;;;;;;;23.27;13.80;;;16.70;99.90;;;;;;5027717;28;25066;-74
2021/07/20 01:06:36;;;;;;;21.75;12.15;;;16.70;99.90;;;;;;5031111;28;25059;-75
2021/07/20 01:09:04;;;;;;;21.58;12.13;;;16.50;99.90;;;;;;5002115;28;25066;-75
2021/07/20 01:11:34;;;;;;;18.88;11.60;;;16.50;99.90;;;;;;5024080;28;25131;-74
2021/07/20 01:14:08;;;;;;;20.73;12.55;;;16.40;99.90;;;;;;5016427;28;25055;-80
2021/07/20 01:16:36;;;;;;;23.25;12.63;;;16.40;99.90;;;;;;5032031;28;25062;-75
2021/07/20 01:19:04;;;;;;;22.15;13.80;;;16.50;99.90;;;;;;5044445;28;25059;-73
2021/07/20 01:21:35;;;;;;;21.60;12.88;;;16.50;99.90;;;;;;5036883;28;25150;-75
2021/07/20 01:24:08;;;;;;;23.00;14.02;;;16.50;99.90;;;;;;5030486;28;25067;-75
2021/07/20 01:26:35;;;;;;;24.70;14.80;;;16.50;99.90;;;;;;5037665;28;25072;-73
2021/07/20 01:29:02;;;;;;;26.73;14.45;;;16.40;99.90;;;;;;5017759;28;25090;-73
2021/07/20 01:31:31;;;;;;;26.85;15.10;;;16.40;99.90;;;;;;5028876;28;25058;-73
2021/07/20 01:34:00;;;;;;;30.00;14.55;;;16.40;99.90;;;;;;5039235;28;25061;-74
2021/07/20 01:36:28;;;;;;;29.92;14.00;;;16.20;99.90;;;;;;5034839;28;25065;-74
2021/07/20 01:38:55;;;;;;;23.52;14.23;;;16.20;99.90;;;;;;5033315;28;25091;-73
2021/07/20 01:41:31;;;;;;;24.33;14.18;;;16.10;99.90;;;;;;5035057;28;25113;-75
2021/07/20 01:44:16;;;;;;;25.83;14.77;;;16.20;99.90;;;;;;5034471;28;25155;-74
2021/07/20 01:46:42;;;;;;;24.75;14.95;;;16.20;99.90;;;;;;5037338;28;25056;-74
2021/07/20 01:49:15;;;;;;;28.25;15.05;;;16.10;99.90;;;;;;5037813;28;25071;-75
2021/07/20 01:51:42;;;;;;;21.83;13.77;;;16.00;99.90;;;;;;5039096;28;25062;-74
2021/07/20 01:54:16;;;;;;;25.65;14.20;;;16.00;99.90;;;;;;5041857;28;25074;-74
2021/07/20 01:56:49;;;;;;;30.02;14.65;;;16.00;99.90;;;;;;5039913;28;25092;-73
2021/07/20 01:59:17;;;;;;;26.38;14.00;;;15.90;99.90;;;;;;5012491;28;25059;-74
2021/07/20 02:10:20;;;;;;;19.85;12.95;;;16.00;99.90;;;;;;5046933;28;25066;-74
2021/07/20 02:12:48;;;;;;;22.80;14.55;;;16.00;99.90;;;;;;5047767;28;25077;-78
2021/07/20 02:15:21;;;;;;;26.92;14.05;;;15.90;99.90;;;;;;5049704;28;25087;-75
2021/07/20 02:17:53;;;;;;;25.52;14.20;;;15.90;99.90;;;;;;5048289;28;25103;-75
2021/07/20 02:20:32;;;;;;;31.17;14.35;;;15.90;99.90;;;;;;5045482;28;25087;-73
2021/07/20 02:23:00;;;;;;;29.40;16.65;;;15.90;99.90;;;;;;5045112;28;25079;-75
2021/07/20 02:25:29;;;;;;;27.75;14.23;;;15.90;99.90;;;;;;5048109;28;25054;-78
2021/07/20 02:27:57;;;;;;;23.30;13.52;;;15.80;99.90;;;;;;5045676;28;25074;-74
2021/07/20 02:30:25;;;;;;;30.25;15.30;;;15.80;99.90;;;;;;5046947;28;25074;-74
2021/07/20 02:32:54;;;;;;;28.73;14.90;;;15.80;99.90;;;;;;5047797;28;25061;-77
2021/07/20 02:35:25;;;;;;;25.85;14.32;;;15.80;99.90;;;;;;5047637;28;25073;-75
2021/07/20 02:37:56;;;;;;;26.38;14.73;;;15.70;99.90;;;;;;5034245;28;25070;-77
2021/07/20 02:40:24;;;;;;;28.65;15.15;;;15.80;99.90;;;;;;5032615;28;25060;-75
2021/07/20 02:42:51;;;;;;;26.90;14.52;;;15.80;99.90;;;;;;5037932;28;25082;-73
2021/07/20 02:45:18;;;;;;;32.75;15.85;;;15.80;99.90;;;;;;5029926;28;25077;-76
2021/07/20 02:47:44;;;;;;;26.45;15.32;;;15.60;99.90;;;;;;5036265;28;25061;-75
2021/07/20 02:50:14;;;;;;;26.52;15.55;;;15.70;99.90;;;;;;5032671;28;25140;-75
2021/07/20 02:52:44;;;;;;;26.77;15.40;;;15.80;99.90;;;;;;5036702;28;25096;-75
2021/07/20 02:55:12;;;;;;;24.85;14.75;;;15.70;99.90;;;;;;5031595;28;25075;-74
2021/07/20 02:57:41;;;;;;;30.52;16.52;;;15.80;99.90;;;;;;5030318;28;25055;-74
2021/07/20 03:00:09;;;;;;;29.10;15.10;;;15.80;99.90;;;;;;5043174;28;25072;-75
2021/07/20 03:02:42;;;;;;;27.52;15.73;;;15.80;99.90;;;;;;5050895;28;25077;-76
2021/07/20 03:05:09;;;;;;;30.52;16.10;;;15.90;99.90;;;;;;5040236;28;25114;-75
2021/07/20 03:07:38;;;;;;;26.67;15.05;;;15.90;99.90;;;;;;5029633;28;25075;-73
2021/07/20 03:10:09;;;;;;;30.75;15.98;;;15.80;99.90;;;;;;5034457;28;25068;-74
2021/07/20 03:12:39;;;;;;;29.02;16.40;;;15.70;99.90;;;;;;5036062;28;25069;-76
2021/07/20 03:15:07;;;;;;;27.50;16.77;;;15.60;99.90;;;;;;5034230;28;25074;-76
2021/07/20 03:17:35;;;;;;;27.25;15.65;;;15.50;99.90;;;;;;5012577;28;25170;-75
2021/07/20 03:20:02;;;;;;;31.35;15.73;;;15.50;99.90;;;;;;5031363;28;25090;-75
2021/07/20 03:22:32;;;;;;;27.20;14.15;;;15.40;99.90;;;;;;5030610;28;25157;-75
2021/07/20 03:25:00;;;;;;;29.85;14.05;;;15.40;99.90;;;;;;5029192;28;25067;-74
2021/07/20 03:27:31;;;;;;;30.35;15.45;;;15.40;99.90;;;;;;5030237;28;25084;-74
2021/07/20 03:30:00;;;;;;;30.60;15.43;;;15.40;99.90;;;;;;5032376;28;25120;-75
2021/07/20 03:32:28;;;;;;;26.42;15.15;;;15.50;99.90;;;;;;5030747;28;25103;-74
2021/07/20 03:34:55;;;;;;;28.58;15.65;;;15.50;99.90;;;;;;5032208;28;25073;-74
2021/07/20 03:37:23;;;;;;;29.77;15.82;;;15.50;99.90;;;;;;5031842;28;25059;-73
2021/07/20 03:39:52;;;;;;;24.98;14.52;;;15.70;99.90;;;;;;5035255;28;25060;-75
2021/07/20 03:42:22;;;;;;;28.40;14.95;;;15.70;99.90;;;;;;5008774;28;25082;-76
2021/07/20 03:44:48;;;;;;;28.08;15.48;;;15.60;99.90;;;;;;5035415;28;25088;-78
2021/07/20 03:47:16;;;;;;;28.08;15.48;;;15.60;99.90;;;;;;5032604;28;25097;-74
2021/07/20 03:49:43;;;;;;;27.95;14.95;;;15.50;99.90;;;;;;5030446;28;25219;-77
2021/07/20 03:52:10;;;;;;;30.60;15.68;;;15.50;99.90;;;;;;5031671;28;25074;-75
2021/07/20 03:54:36;;;;;;;28.30;14.75;;;15.50;99.90;;;;;;5014343;28;25147;-76
2021/07/20 03:57:03;;;;;;;30.25;15.07;;;15.40;99.90;;;;;;5030111;28;25106;-76
2021/07/20 03:59:32;;;;;;;29.45;16.75;;;15.40;99.90;;;;;;5031298;28;25078;-75
2021/07/20 04:02:00;;;;;;;29.15;16.08;;;15.30;99.90;;;;;;5016577;28;25107;-74
2021/07/20 04:04:28;;;;;;;31.00;16.55;;;15.40;99.90;;;;;;5031542;28;25081;-75
2021/07/20 04:06:59;;;;;;;26.13;15.18;;;15.30;99.90;;;;;;5035904;28;25092;-77
2021/07/20 04:09:27;;;;;;;31.20;17.08;;;15.40;99.90;;;;;;5031478;28;25068;-73
2021/07/20 04:11:53;;;;;;;29.38;15.57;;;15.30;99.90;;;;;;5025408;28;25087;-74
2021/07/20 04:14:19;;;;;;;24.73;14.90;;;15.40;99.90;;;;;;5016197;28;25067;-74
2021/07/20 04:16:46;;;;;;;26.52;14.40;;;15.50;99.90;;;;;;4998751;28;25055;-73
2021/07/20 04:19:15;;;;;;;28.92;14.48;;;15.50;99.90;;;;;;5023476;28;25081;-73
2021/07/20 04:21:42;;;;;;;33.53;16.13;;;15.40;99.90;;;;;;5029366;28;25064;-74
2021/07/20 04:24:10;;;;;;;31.58;16.25;;;15.30;99.90;;;;;;5029106;28;25080;-74
2021/07/20 04:26:37;;;;;;;33.13;15.43;;;15.30;99.90;;;;;;5028704;28;25094;-75
2021/07/20 04:29:02;;;;;;;36.85;16.10;;;15.40;99.90;;;;;;5008474;28;25091;-73
2021/07/20 04:31:30;;;;;;;29.15;15.93;;;15.30;99.90;;;;;;5028679;28;25083;-73
2021/07/20 04:33:56;;;;;;;31.60;15.70;;;15.30;99.90;;;;;;5014000;28;25060;-73
2021/07/20 04:36:23;;;;;;;32.92;16.30;;;15.30;99.90;;;;;;5030316;28;25114;-74
2021/07/20 04:38:49;;;;;;;30.45;15.18;;;15.30;99.90;;;;;;5027607;28;25063;-75
2021/07/20 04:41:19;;;;;;;34.88;16.23;;;15.30;99.90;;;;;;5030621;28;25061;-74
2021/07/20 04:43:46;;;;;;;33.13;15.18;;;15.40;99.90;;;;;;5024709;28;25157;-71
2021/07/20 04:46:14;;;;;;;28.80;15.23;;;15.50;99.90;;;;;;5025597;28;25078;-73
2021/07/20 04:48:40;;;;;;;31.33;16.13;;;15.50;99.90;;;;;;5021604;28;25118;-73
2021/07/20 04:51:07;;;;;;;33.05;16.42;;;15.40;99.90;;;;;;5029660;28;25134;-72
2021/07/20 04:53:38;;;;;;;36.85;16.10;;;15.50;99.90;;;;;;5029830;28;25068;-73
2021/07/20 04:56:04;;;;;;;33.53;16.45;;;15.50;99.90;;;;;;5033096;28;25072;-73
2021/07/20 04:58:30;;;;;;;30.25;16.45;;;15.40;99.90;;;;;;5024661;28;25137;-76
2021/07/20 05:00:55;;;;;;;32.63;16.50;;;15.50;99.90;;;;;;5029481;28;25060;-73
2021/07/20 05:03:25;;;;;;;28.60;15.50;;;15.60;99.90;;;;;;5025435;28;25074;-75
2021/07/20 05:05:57;;;;;;;33.55;16.35;;;15.50;99.90;;;;;;5032805;28;25175;-72
2021/07/20 05:08:23;;;;;;;28.33;14.43;;;15.60;99.90;;;;;;5029579;28;25055;-73
2021/07/20 05:10:51;;;;;;;24.80;14.05;;;15.70;99.90;;;;;;5017865;28;25070;-73
2021/07/20 05:13:19;;;;;;;27.70;14.15;;;15.80;99.90;;;;;;5022821;28;25106;-73
2021/07/20 05:15:56;;;;;;;28.42;14.10;;;15.80;99.90;;;;;;5023436;28;25150;-73
2021/07/20 05:18:23;;;;;;;26.02;14.15;;;15.70;99.90;;;;;;5023095;28;25098;-76
2021/07/20 05:20:53;;;;;;;24.70;14.00;;;15.70;99.90;;;;;;5021850;28;25068;-72
2021/07/20 05:23:19;;;;;;;26.77;14.27;;;15.80;99.90;;;;;;5031014;28;25072;-72
2021/07/20 05:25:50;;;;;;;25.75;12.90;;;15.90;99.90;;;;;;5028439;28;25111;-73
2021/07/20 05:28:17;;;;;;;25.42;12.30;;;15.80;99.90;;;;;;5027233;28;25060;-71
2021/07/20 05:30:43;;;;;;;23.67;11.90;;;15.80;99.90;;;;;;5025168;28;25074;-73
2021/07/20 05:33:10;;;;;;;22.05;11.95;;;15.90;99.90;;;;;;5020889;28;25072;-73
2021/07/20 05:35:37;;;;;;;19.95;10.82;;;16.00;99.90;;;;;;5023304;28;25055;-72
2021/07/20 05:38:04;;;;;;;19.02;10.93;;;16.10;99.90;;;;;;5022009;28;25107;-73
2021/07/20 05:40:29;;;;;;;17.67;10.32;;;16.20;99.90;;;;;;5027924;28;25079;-73
2021/07/20 05:42:57;;;;;;;19.27;10.18;;;16.30;99.90;;;;;;5021340;28;25070;-73
2021/07/20 05:45:26;;;;;;;25.35;10.52;;;16.50;99.90;;;;;;5026328;28;25069;-74
2021/07/20 05:47:52;;;;;;;22.13;11.25;;;16.40;99.90;;;;;;5034854;28;25106;-72
2021/07/20 05:50:19;;;;;;;20.75;10.05;;;16.50;99.90;;;;;;5037451;28;25060;-73
2021/07/20 05:52:56;;;;;;;19.85;10.02;;;16.50;99.90;;;;;;5042084;28;25083;-72
2021/07/20 05:55:24;;;;;;;19.90;10.40;;;16.50;99.90;;;;;;5053062;28;25063;-73
2021/07/20 05:57:51;;;;;;;19.60;10.60;;;16.60;99.90;;;;;;5047432;28;25091;-77
2021/07/20 06:00:23;;;;;;;17.27;9.02;;;16.70;99.90;;;;;;5041717;28;25074;-75
2021/07/20 06:02:49;;;;;;;15.65;8.88;;;16.80;99.90;;;;;;5037096;28;25056;-72
2021/07/20 06:05:16;;;;;;;18.15;9.48;;;17.00;99.90;;;;;;5036874;28;25049;-73
2021/07/20 06:07:44;;;;;;;20.52;9.43;;;17.10;99.90;;;;;;5018750;28;25103;-72
2021/07/20 06:10:15;;;;;;;14.60;8.48;;;17.10;99.90;;;;;;5041024;28;25097;-72
2021/07/20 06:12:43;;;;;;;15.85;8.27;;;17.20;99.90;;;;;;5036954;28;25070;-72
2021/07/20 06:15:10;;;;;;;14.32;8.10;;;17.50;99.90;;;;;;5028025;28;25076;-73
2021/07/20 06:17:37;;;;;;;14.00;8.32;;;17.50;99.90;;;;;;5035641;28;25130;-73
2021/07/20 06:20:04;;;;;;;16.70;8.77;;;17.60;99.90;;;;;;5037974;28;25053;-73
2021/07/20 06:22:32;;;;;;;14.85;8.35;;;17.70;99.90;;;;;;5021748;28;25153;-74
2021/07/20 06:24:59;;;;;;;16.95;8.85;;;17.60;99.90;;;;;;5031144;28;25061;-74
2021/07/20 06:27:26;;;;;;;14.57;8.85;;;17.70;99.90;;;;;;5029981;28;25088;-70
2021/07/20 06:29:55;;;;;;;14.68;8.18;;;17.90;99.90;;;;;;5037750;28;25075;-72
2021/07/20 06:32:22;;;;;;;14.20;7.90;;;18.00;99.90;;;;;;5041040;28;25111;-72
2021/07/20 06:34:49;;;;;;;13.38;7.78;;;18.10;99.90;;;;;;5029923;28;25085;-71
2021/07/20 06:37:18;;;;;;;14.95;7.93;;;18.40;99.90;;;;;;5039686;28;25062;-74
2021/07/20 06:39:44;;;;;;;12.00;7.55;;;18.50;99.90;;;;;;5035879;28;25106;-71
2021/07/20 06:42:11;;;;;;;15.48;7.90;;;18.50;99.90;;;;;;5030985;28;25046;-71
2021/07/20 06:44:37;;;;;;;14.27;8.13;;;18.60;99.90;;;;;;5027517;28;25063;-72
2021/07/20 06:47:05;;;;;;;19.20;8.60;;;18.80;99.90;;;;;;5024111;28;25104;-73
2021/07/20 06:49:37;;;;;;;14.30;8.35;;;18.70;99.90;;;;;;5027579;28;25091;-72
2021/07/20 06:52:06;;;;;;;;;;;18.90;99.90;;;;;;5025977;28;25114;-73
2021/07/20 06:54:33;;;;;;;14.65;8.13;;;18.90;99.90;;;;;;5023121;28;24102;-74
2021/07/20 06:57:05;;;;;;;13.27;8.63;;;19.00;99.90;;;;;;5026199;28;25079;-76
2021/07/20 06:59:33;;;;;;;16.65;8.35;;;18.90;99.90;;;;;;5027008;28;25174;-74
2021/07/20 07:02:01;;;;;;;13.02;7.50;;;19.10;99.90;;;;;;5019050;28;25094;-74
2021/07/20 07:04:52;;;;;;;16.58;7.78;;;19.10;99.90;;;;;;5020766;28;25112;-73
2021/07/20 07:07:19;;;;;;;11.27;7.35;;;19.00;99.90;;;;;;5030482;28;25085;-75
2021/07/20 07:09:48;;;;;;;9.77;6.75;;;19.10;99.90;;;;;;5030766;28;25059;-74
2021/07/20 07:12:14;;;;;;;11.65;7.53;;;19.30;99.90;;;;;;5028516;28;25057;-72
2021/07/20 07:14:40;;;;;;;11.45;7.82;;;19.60;99.90;;;;;;5029416;28;25115;-72
2021/07/20 07:17:08;;;;;;;13.45;7.78;;;20.00;99.90;;;;;;5036002;28;25143;-75
2021/07/20 07:19:34;;;;;;;10.50;7.25;;;20.30;99.90;;;;;;5022273;28;25099;-74
2021/07/20 07:22:01;;;;;;;9.95;6.90;;;20.40;99.90;;;;;;5035847;28;25059;-73
2021/07/20 07:24:27;;;;;;;9.65;6.55;;;20.00;99.90;;;;;;5032555;28;25070;-74
2021/07/20 07:26:53;;;;;;;13.85;7.60;;;19.90;99.90;;;;;;5030913;28;25061;-71
2021/07/20 07:29:20;;;;;;;9.68;6.50;;;20.10;99.90;;;;;;5029617;28;25065;-73
2021/07/20 07:31:47;;;;;;;12.70;6.68;;;20.10;99.90;;;;;;5031100;28;25110;-74
2021/07/20 07:34:13;;;;;;;14.50;8.68;;;19.80;99.90;;;;;;5030338;28;25076;-71
2021/07/20 07:36:46;;;;;;;10.88;7.47;;;19.90;99.90;;;;;;5031672;28;25075;-74
2021/07/20 07:39:13;;;;;;;13.73;7.15;;;20.20;99.90;;;;;;5030731;28;25049;-73
2021/07/20 07:41:40;;;;;;;12.07;7.38;;;20.50;99.90;;;;;;5031183;28;25118;-75
2021/07/20 07:44:11;;;;;;;12.68;6.90;;;20.60;99.90;;;;;;5027300;28;25049;-77
2021/07/20 07:46:40;;;;;;;9.95;6.90;;;20.70;99.90;;;;;;5020592;28;25079;-72
2021/07/20 07:49:07;;;;;;;13.20;6.75;;;20.70;99.90;;;;;;5032544;28;25057;-73
2021/07/20 07:51:33;;;;;;;9.77;6.43;;;20.80;99.90;;;;;;5032854;28;25061;-74
2021/07/20 07:53:59;;;;;;;9.98;6.63;;;20.40;99.90;;;;;;5036621;28;25074;-74
2021/07/20 07:56:30;;;;;;;13.52;6.22;;;20.60;99.90;;;;;;5032147;28;25096;-74
2021/07/20 07:58:58;;;;;;;13.63;6.80;;;20.50;99.90;;;;;;5033461;28;25091;-72
2021/07/20 08:01:27;;;;;;;12.65;7.75;;;20.40;99.90;;;;;;5032425;28;25098;-73
2021/07/20 08:03:54;;;;;;;13.07;7.00;;;20.80;99.90;;;;;;5014464;28;25068;-73
2021/07/20 08:06:21;;;;;;;15.07;6.93;;;21.20;99.90;;;;;;5028470;28;25078;-73
2021/07/20 08:08:55;;;;;;;10.32;6.35;;;21.00;99.90;;;;;;5022348;28;25076;-73
2021/07/20 08:11:23;;;;;;;10.82;6.80;;;20.90;99.90;;;;;;5019709;28;25086;-74
2021/07/20 08:13:49;;;;;;;12.27;5.93;;;20.70;99.90;;;;;;5028227;28;25053;-74
2021/07/20 08:16:15;;;;;;;10.43;6.28;;;21.00;99.90;;;;;;5028559;28;25068;-74
2021/07/20 08:18:42;;;;;;;21.63;7.28;;;20.30;99.90;;;;;;5031529;28;25072;-72
2021/07/20 08:21:08;;;;;;;12.23;6.93;;;20.00;99.90;;;;;;5034505;28;25069;-74
2021/07/20 08:23:36;;;;;;;10.48;6.82;;;20.10;99.90;;;;;;5018168;28;25121;-72
2021/07/20 08:26:38;;;;;;;13.57;6.82;;;20.40;99.90;;;;;;5020472;28;25073;-76
2021/07/20 08:29:07;;;;;;;9.27;6.03;;;20.70;99.90;;;;;;4993266;28;25091;-79
2021/07/20 08:31:43;;;;;;;10.07;6.28;;;20.50;99.90;;;;;;5033934;28;25138;-73
2021/07/20 08:34:11;;;;;;;10.43;6.82;;;20.60;99.90;;;;;;5033051;28;25080;-75
2021/07/20 08:36:39;;;;;;;11.43;6.07;;;20.80;99.90;;;;;;5034175;28;25084;-76
2021/07/20 08:39:10;;;;;;;15.82;7.15;;;20.60;99.90;;;;;;5024428;28;25092;-75
2021/07/20 08:41:51;;;;;;;11.27;6.43;;;20.10;99.90;;;;;;5020498;28;25071;-76
2021/07/20 08:44:32;;;;;;;12.35;7.63;;;20.10;99.90;;;;;;5041201;28;25064;-77
2021/07/20 08:47:19;;;;;;;9.82;6.50;;;20.30;99.90;;;;;;5032238;28;25118;-76
2021/07/20 08:50:30;;;;;;;12.48;6.70;;;20.30;99.90;;;;;;5021240;28;25074;-75
2021/07/20 08:53:08;;;;;;;10.70;6.35;;;20.30;99.90;;;;;;5016419;28;25122;-73
2021/07/20 08:55:42;;;;;;;12.32;6.70;;;20.00;99.90;;;;;;5024743;28;25060;-74
2021/07/20 08:58:32;;;;;;;11.90;7.30;;;20.40;99.90;;;;;;5022461;28;25078;-74
2021/07/20 09:01:12;;;;;;;9.95;6.50;;;20.50;99.90;;;;;;5012978;28;25170;-72
2021/07/20 09:04:23;;;;;;;11.35;6.63;;;20.70;99.90;;;;;;5042560;28;25082;-76
2021/07/20 09:07:15;;;;;;;11.68;5.85;;;20.70;99.90;;;;;;5020123;28;25088;-77
2021/07/20 09:09:46;;;;;;;12.30;6.60;;;20.50;99.90;;;;;;5039547;28;25109;-73
2021/07/20 09:12:25;;;;;;;11.90;7.07;;;20.40;99.90;;;;;;5019985;28;25072;-74
2021/07/20 09:15:19;;;;;;;9.63;6.68;;;20.60;99.90;;;;;;5033776;28;25066;-75
2021/07/20 09:18:01;;;;;;;13.00;7.32;;;20.60;99.90;;;;;;5027239;28;25150;-73
2021/07/20 09:20:33;;;;;;;30.88;7.32;;;20.90;99.90;;;;;;5035904;28;25089;-74
2021/07/20 09:23:11;;;;;;;;;;;20.80;99.90;;;;;;5035871;28;27057;-73
2021/07/20 09:25:44;;;;;;;9.30;6.32;;;20.50;99.90;;;;;;5034671;28;24070;-74
2021/07/20 09:28:14;;;;;;;11.23;6.95;;;20.10;99.90;;;;;;5037115;28;25058;-75
2021/07/20 09:30:46;;;;;;;15.60;7.10;;;20.30;99.90;;;;;;5040213;28;25073;-74
2021/07/20 09:33:14;;;;;;;;;;;20.20;99.90;;;;;;5034271;28;25077;-73
2021/07/20 09:35:59;;;;;;;12.50;6.90;;;20.10;99.90;;;;;;5036354;28;25076;-73
2021/07/20 09:38:48;;;;;;;10.20;6.38;;;20.30;99.90;;;;;;5035742;28;25120;-74
2021/07/20 09:41:23;;;;;;;12.23;7.25;;;20.80;99.90;;;;;;5038964;28;25141;-74
2021/07/20 09:44:03;;;;;;;10.45;6.80;;;21.00;99.90;;;;;;5025722;28;25068;-75
2021/07/20 09:46:45;;;;;;;9.40;6.18;;;21.30;99.90;;;;;;5029575;28;25069;-75
2021/07/20 09:49:24;;;;;;;16.17;6.95;;;21.50;99.90;;;;;;5029745;28;25087;-75
2021/07/20 09:51:59;;;;;;;13.18;6.82;;;21.30;99.90;;;;;;5027347;28;25073;-75
2021/07/20 09:54:32;;;;;;;13.93;7.97;;;21.00;99.90;;;;;;5037587;28;25051;-75
2021/07/20 09:57:24;;;;;;;14.45;6.93;;;20.70;99.90;;;;;;5023342;28;25076;-75
2021/07/20 09:59:53;;;;;;;13.43;7.43;;;20.60;99.90;;;;;;5031237;28;25088;-75
2021/07/20 10:02:30;;;;;;;11.80;8.00;;;20.50;99.90;;;;;;5016949;28;25095;-75
2021/07/20 10:05:12;;;;;;;16.80;7.65;;;20.20;99.90;;;;;;5029134;28;25088;-74
2021/07/20 10:07:45;;;;;;;13.18;7.30;;;20.20;99.90;;;;;;5029182;28;25178;-74
2021/07/20 10:10:16;;;;;;;11.43;6.85;;;20.70;99.90;;;;;;5038190;28;25080;-73
2021/07/20 10:13:14;;;;;;;13.18;7.45;;;21.00;99.90;;;;;;5037129;28;25074;-74
2021/07/20 10:15:49;;;;;;;12.32;8.05;;;21.30;99.90;;;;;;5039636;28;25075;-76
2021/07/20 10:18:24;;;;;;;16.70;7.82;;;20.70;99.90;;;;;;5046775;28;25081;-75
2021/07/20 10:20:56;;;;;;;17.52;6.95;;;20.60;99.90;;;;;;5035959;28;25116;-74
2021/07/20 10:24:13;;;;;;;11.02;7.00;;;20.70;99.90;;;;;;5020384;28;25139;-74
2021/07/20 10:26:45;;;;;;;14.50;8.13;;;20.80;99.90;;;;;;4951403;29;25085;-76
2021/07/20 10:29:41;;;;;;;13.05;7.90;;;21.20;99.90;;;;;;5009351;28;25068;-75
2021/07/20 10:32:23;;;;;;;14.00;7.70;;;21.10;99.90;;;;;;5023651;28;25083;-73
2021/07/20 10:34:55;;;;;;;15.38;7.75;;;21.00;99.90;;;;;;5023161;28;25068;-75
2021/07/20 10:37:23;;;;;;;;;;;20.60;99.90;;;;;;5035836;28;25059;-73
2021/07/20 10:40:06;;;;;;;12.43;7.30;;;20.70;99.90;;;;;;5034415;28;25066;-74
2021/07/20 10:42:44;;;;;;;13.02;6.88;;;20.90;99.90;;;;;;5036740;28;25085;-71
2021/07/20 10:45:14;;;;;;;11.38;7.22;;;21.20;99.90;;;;;;5032285;28;25145;-74
2021/07/20 10:48:06;;;;;;;17.80;8.27;;;21.30;99.90;;;;;;5034855;28;25151;-77
2021/07/20 10:50:53;;;;;;;13.85;8.13;;;21.30;99.90;;;;;;5034358;28;25086;-75
2021/07/20 10:53:27;;;;;;;16.55;7.47;;;21.00;99.90;;;;;;5036205;28;25119;-75
2021/07/20 10:56:14;;;;;;;11.32;7.95;;;21.20;99.90;;;;;;5016591;28;25104;-75
2021/07/20 10:59:18;;;;;;;12.52;7.13;;;21.40;99.90;;;;;;5025624;28;25077;-74
2021/07/20 11:02:05;;;;;;;12.50;7.25;;;21.60;99.90;;;;;;5001229;28;25075;-73
2021/07/20 11:04:55;;;;;;;11.35;6.97;;;21.60;99.90;;;;;;5036397;28;25081;-73
2021/07/20 11:07:55;;;;;;;12.48;7.75;;;21.10;99.90;;;;;;5030765;28;25108;-80
2021/07/20 11:10:32;;;;;;;12.18;7.45;;;21.10;99.90;;;;;;5014857;28;25068;-75
2021/07/20 11:13:12;;;;;;;14.27;8.10;;;21.30;99.90;;;;;;5034037;28;25072;-74
2021/07/20 11:15:41;;;;;;;13.63;7.85;;;21.60;99.90;;;;;;5031864;28;25102;-75
2021/07/20 11:18:12;;;;;;;13.77;7.32;;;21.50;99.90;;;;;;5035497;28;25144;-72
2021/07/20 11:20:41;;;;;;;13.83;8.80;;;21.20;99.90;;;;;;5033092;28;25065;-75
2021/07/20 11:23:09;;;;;;;13.80;7.30;;;21.50;99.90;;;;;;5038306;28;25141;-75
2021/07/20 11:25:36;;;;;;;11.15;8.38;;;21.60;99.90;;;;;;5026739;28;25065;-75
2021/07/20 11:28:02;;;;;;;16.55;7.40;;;21.40;99.90;;;;;;5025706;28;25075;-74
2021/07/20 11:30:34;;;;;;;14.25;7.63;;;21.30;99.90;;;;;;5021932;28;25060;-75
2021/07/20 11:33:11;;;;;;;14.77;7.47;;;21.60;99.90;;;;;;5046491;28;25068;-74
2021/07/20 11:35:40;;;;;;;14.63;9.02;;;21.80;99.90;;;;;;5032711;28;25077;-72
2021/07/20 11:38:14;;;;;;;14.48;8.25;;;21.90;99.90;;;;;;5037124;28;25065;-76
2021/07/20 11:41:09;;;;;;;15.00;8.48;;;21.40;99.90;;;;;;5041715;28;25058;-76
2021/07/20 11:44:01;;;;;;;14.13;8.52;;;21.40;99.90;;;;;;5034477;28;25082;-73
2021/07/20 11:46:40;;;;;;;13.75;8.45;;;21.10;99.90;;;;;;5025718;28;25072;-75
2021/07/20 11:49:11;;;;;;;14.80;8.00;;;21.40;99.90;;;;;;5036356;28;25081;-76
2021/07/20 11:51:52;;;;;;;13.65;7.15;;;21.60;99.90;;;;;;5042105;28;25073;-76
2021/07/20 11:54:33;;;;;;;11.75;8.43;;;21.60;99.90;;;;;;5023350;28;25056;-74
2021/07/20 11:57:12;;;;;;;14.20;7.97;;;21.90;99.90;;;;;;5021564;28;25058;-72
2021/07/20 12:00:20;;;;;;;16.23;9.13;;;22.30;99.90;;;;;;5040328;28;25144;-75
2021/07/20 12:03:15;;;;;;;16.05;8.52;;;22.80;99.90;;;;;;5033128;28;25099;-74
2021/07/20 12:05:55;;;;;;;14.52;8.20;;;22.80;99.90;;;;;;5036984;28;25056;-74
2021/07/20 12:08:27;;;;;;;15.68;8.93;;;22.50;99.90;;;;;;5037699;28;25101;-74
2021/07/20 12:11:03;;;;;;;14.80;8.25;;;22.40;99.90;;;;;;5045190;28;25068;-74
2021/07/20 12:13:29;;;;;;;19.95;8.75;;;22.20;99.90;;;;;;5033192;28;25057;-74
2021/07/20 12:15:56;;;;;;;15.88;7.65;;;22.10;99.90;;;;;;5032919;28;25079;-77
2021/07/20 12:18:22;;;;;;;19.17;9.23;;;22.20;99.90;;;;;;5035150;28;25061;-76
2021/07/20 12:20:50;;;;;;;16.60;9.35;;;22.30;99.90;;;;;;5037921;28;25086;-75
2021/07/20 12:23:16;;;;;;;16.45;8.93;;;22.10;99.90;;;;;;5031375;28;25060;-76
2021/07/20 12:25:43;;;;;;;12.50;8.13;;;22.50;99.90;;;;;;5040787;28;25064;-75
2021/07/20 12:28:10;;;;;;;18.48;9.20;;;22.90;99.90;;;;;;5036677;28;25120;-75
2021/07/20 12:30:36;;;;;;;14.10;8.57;;;23.00;99.90;;;;;;5033624;28;25204;-76
2021/07/20 12:33:13;;;;;;;12.82;8.23;;;22.90;99.90;;;;;;5037656;28;25093;-72
2021/07/20 12:35:43;;;;;;;18.08;9.95;;;23.20;99.90;;;;;;5033371;28;25127;-75
2021/07/20 12:38:10;;;;;;;21.38;9.63;;;22.90;99.90;;;;;;5033201;28;25068;-74
2021/07/20 12:40:38;;;;;;;16.08;8.65;;;22.90;99.90;;;;;;5037361;28;25055;-74
2021/07/20 12:43:13;;;;;;;21.17;9.20;;;23.40;99.90;;;;;;5017966;28;25108;-75
2021/07/20 12:45:41;;;;;;;15.60;8.70;;;23.70;99.90;;;;;;5034967;28;25201;-74
2021/07/20 12:48:23;;;;;;;13.93;8.70;;;23.60;99.90;;;;;;5037969;28;25071;-79
2021/07/20 12:50:49;;;;;;;14.95;8.95;;;23.60;99.90;;;;;;5016180;28;25074;-75
2021/07/20 12:53:16;;;;;;;16.02;8.30;;;23.20;99.90;;;;;;5032557;28;25139;-75
2021/07/20 12:55:42;;;;;;;18.75;9.73;;;23.20;99.90;;;;;;5036051;28;25054;-75
2021/07/20 12:58:10;;;;;;;16.95;9.23;;;23.30;99.90;;;;;;5032406;28;25056;-74
2021/07/20 13:00:36;;;;;;;18.75;9.73;;;23.30;99.90;;;;;;5033522;28;25098;-74
2021/07/20 13:03:07;;;;;;;14.77;9.15;;;23.20;99.90;;;;;;5034174;28;25159;-76